LiveATC.Net - Listen to live air traffic control over the Internet! Contact for advertising information

ICAO: KOSU  IATA: OSU   Airport: Ohio State University Airport
City: Columbus   State/Province: Ohio
Country: United States   Continent: North America
KOSU METAR Weather: KOSU 280453Z AUTO 23003KT 7SM -RA OVC021 13/12 A3024 RMK AO2 SLP239 P0002 T01280117 401670106
KOSU Flight Activity (FlightAware)
KOSU Airport Info   (AirNav) (iFlightPlanner)
KOSU VFR Sectional Chart   (iFlightPlanner) 
KOSU IFR Low Chart   (iFlightPlanner) 
KOSU Ground/Tower
Feed Status: UP   Listeners: 2
Listen right in your browser - requires Flash (in browser, requires Flash)
Click here to listen with your own player (launches your MP3 player)
KOSU Ground/Tower Audio Archives
State Ground121.700
State Tower118.800

Sponsored by:


Unauthorized use prohibited. See Terms of Service

Find LiveATC Audio Streams

Airport/ARTCC Code

(e.g., 124.400, 128.75)
Site-wide search

Browse LiveATC Feeds
LiveATC Coverage Map
Top 50 LiveATC Feeds
Bad Weather Areas

Offer a LiveATC Feed
Press Inquiries

LiveATC on iPhone
LiveATC on Android

Windows Phone
Windows 8/10

LiveATC Mobile
(Mobile browser)

ATC Audio Archives
Interesting Recordings

LiveATC Forums

Home Page
Make a Donation
LiveATC Bookstore

Terms of Use
Privacy Policy

ATC/Radar Sites
U.S. ARTCC Freqs
Canadian Air Freqs


FAA Airport Status
Nat'l Airspace Status
Arrival Demand Charts

Server Software By:

Please make a donation to help us keep growing!